sensor_id;sensor_type;location;lat;lon;timestamp;temperature;humidity
52058;DHT22;38063;53.210;6.504;2022-10-16T00:01:48;11.90;99.90
52058;DHT22;38063;53.210;6.504;2022-10-16T00:04:14;11.90;99.90
52058;DHT22;38063;53.210;6.504;2022-10-16T00:06:39;11.90;99.90
52058;DHT22;38063;53.210;6.504;2022-10-16T00:09:06;12.00;99.90
52058;DHT22;38063;53.210;6.504;2022-10-16T00:11:34;11.90;99.90
52058;DHT22;38063;53.210;6.504;2022-10-16T00:14:04;11.90;99.90
52058;DHT22;38063;53.210;6.504;2022-10-16T00:16:31;11.90;99.90
52058;DHT22;38063;53.210;6.504;2022-10-16T00:18:57;11.90;99.90
52058;DHT22;38063;53.210;6.504;2022-10-16T00:21:25;11.90;99.90
52058;DHT22;38063;53.210;6.504;2022-10-16T00:24:00;11.90;99.90
52058;DHT22;38063;53.210;6.504;2022-10-16T00:26:27;11.90;99.90
52058;DHT22;38063;53.210;6.504;2022-10-16T00:28:53;11.90;99.90
52058;DHT22;38063;53.210;6.504;2022-10-16T00:31:20;11.90;99.90
52058;DHT22;38063;53.210;6.504;2022-10-16T00:33:47;11.90;99.90
52058;DHT22;38063;53.210;6.504;2022-10-16T00:36:15;11.90;99.90
52058;DHT22;38063;53.210;6.504;2022-10-16T00:38:41;11.90;99.90
52058;DHT22;38063;53.210;6.504;2022-10-16T00:41:09;11.90;99.90
52058;DHT22;38063;53.210;6.504;2022-10-16T00:43:42;11.90;99.90
52058;DHT22;38063;53.210;6.504;2022-10-16T00:46:25;11.90;99.90
52058;DHT22;38063;53.210;6.504;2022-10-16T00:51:35;11.90;99.90
52058;DHT22;38063;53.210;6.504;2022-10-16T00:54:03;11.90;99.90
52058;DHT22;38063;53.210;6.504;2022-10-16T00:56:29;12.00;99.90
52058;DHT22;38063;53.210;6.504;2022-10-16T00:58:55;11.90;99.90
52058;DHT22;38063;53.210;6.504;2022-10-16T01:01:21;11.90;99.90
52058;DHT22;38063;53.210;6.504;2022-10-16T01:03:46;12.00;99.90
52058;DHT22;38063;53.210;6.504;2022-10-16T01:06:43;11.90;99.90
52058;DHT22;38063;53.210;6.504;2022-10-16T01:12:06;12.00;99.90
52058;DHT22;38063;53.210;6.504;2022-10-16T01:14:50;12.00;99.90
52058;DHT22;38063;53.210;6.504;2022-10-16T01:17:31;12.00;99.90
52058;DHT22;38063;53.210;6.504;2022-10-16T01:20:20;12.00;99.90
52058;DHT22;38063;53.210;6.504;2022-10-16T01:23:04;12.00;99.90
52058;DHT22;38063;53.210;6.504;2022-10-16T01:25:46;11.90;99.90
52058;DHT22;38063;53.210;6.504;2022-10-16T01:28:15;11.90;99.90
52058;DHT22;38063;53.210;6.504;2022-10-16T01:30:45;11.90;99.90
52058;DHT22;38063;53.210;6.504;2022-10-16T01:33:21;12.00;99.90
52058;DHT22;38063;53.210;6.504;2022-10-16T01:35:54;11.90;99.90
52058;DHT22;38063;53.210;6.504;2022-10-16T01:38:31;11.90;99.90
52058;DHT22;38063;53.210;6.504;2022-10-16T01:41:01;12.00;99.90
52058;DHT22;38063;53.210;6.504;2022-10-16T01:43:45;12.10;99.90
52058;DHT22;38063;53.210;6.504;2022-10-16T01:46:13;12.00;99.90
52058;DHT22;38063;53.210;6.504;2022-10-16T01:48:39;12.00;99.90
52058;DHT22;38063;53.210;6.504;2022-10-16T01:51:09;12.10;99.90
52058;DHT22;38063;53.210;6.504;2022-10-16T01:53:36;12.20;99.90
52058;DHT22;38063;53.210;6.504;2022-10-16T01:56:05;12.10;99.90
52058;DHT22;38063;53.210;6.504;2022-10-16T01:58:36;12.10;99.90
52058;DHT22;38063;53.210;6.504;2022-10-16T02:01:04;12.10;99.90
52058;DHT22;38063;53.210;6.504;2022-10-16T02:03:32;12.10;99.90
52058;DHT22;38063;53.210;6.504;2022-10-16T02:05:58;12.10;99.90
52058;DHT22;38063;53.210;6.504;2022-10-16T02:08:27;12.20;99.90
52058;DHT22;38063;53.210;6.504;2022-10-16T02:10:55;12.20;99.90
52058;DHT22;38063;53.210;6.504;2022-10-16T02:15:56;12.20;99.90
52058;DHT22;38063;53.210;6.504;2022-10-16T02:18:21;12.30;99.90
52058;DHT22;38063;53.210;6.504;2022-10-16T02:21:28;12.30;99.90
52058;DHT22;38063;53.210;6.504;2022-10-16T02:24:33;12.30;99.90
52058;DHT22;38063;53.210;6.504;2022-10-16T02:27:05;12.30;99.90
52058;DHT22;38063;53.210;6.504;2022-10-16T02:29:36;12.30;99.90
52058;DHT22;38063;53.210;6.504;2022-10-16T02:32:06;12.30;99.90
52058;DHT22;38063;53.210;6.504;2022-10-16T02:34:33;12.30;99.90
52058;DHT22;38063;53.210;6.504;2022-10-16T02:37:01;12.40;99.90
52058;DHT22;38063;53.210;6.504;2022-10-16T02:39:29;12.40;99.90
52058;DHT22;38063;53.210;6.504;2022-10-16T02:41:54;12.40;99.90
52058;DHT22;38063;53.210;6.504;2022-10-16T02:44:20;12.40;99.90
52058;DHT22;38063;53.210;6.504;2022-10-16T02:46:46;12.40;99.90
52058;DHT22;38063;53.210;6.504;2022-10-16T02:49:11;12.40;99.90
52058;DHT22;38063;53.210;6.504;2022-10-16T02:51:37;12.40;99.90
52058;DHT22;38063;53.210;6.504;2022-10-16T02:54:03;12.40;99.90
52058;DHT22;38063;53.210;6.504;2022-10-16T02:56:29;12.50;99.90
52058;DHT22;38063;53.210;6.504;2022-10-16T02:58:56;12.40;99.90
52058;DHT22;38063;53.210;6.504;2022-10-16T03:01:22;12.40;99.90
52058;DHT22;38063;53.210;6.504;2022-10-16T03:03:47;12.40;99.90
52058;DHT22;38063;53.210;6.504;2022-10-16T03:06:13;12.40;99.90
52058;DHT22;38063;53.210;6.504;2022-10-16T03:08:38;12.40;99.90
52058;DHT22;38063;53.210;6.504;2022-10-16T03:11:04;12.40;99.90
52058;DHT22;38063;53.210;6.504;2022-10-16T03:13:30;12.40;99.90
52058;DHT22;38063;53.210;6.504;2022-10-16T03:15:55;12.40;99.90
52058;DHT22;38063;53.210;6.504;2022-10-16T03:18:21;12.40;99.90
52058;DHT22;38063;53.210;6.504;2022-10-16T03:20:47;12.40;99.90
52058;DHT22;38063;53.210;6.504;2022-10-16T03:23:12;12.50;99.90
52058;DHT22;38063;53.210;6.504;2022-10-16T03:25:38;12.40;99.90
52058;DHT22;38063;53.210;6.504;2022-10-16T03:28:03;12.40;99.90
52058;DHT22;38063;53.210;6.504;2022-10-16T03:30:29;12.50;99.90
52058;DHT22;38063;53.210;6.504;2022-10-16T03:32:55;12.60;99.90
52058;DHT22;38063;53.210;6.504;2022-10-16T03:35:22;12.40;99.90
52058;DHT22;38063;53.210;6.504;2022-10-16T03:37:48;12.40;99.90
52058;DHT22;38063;53.210;6.504;2022-10-16T03:40:14;12.40;99.90
52058;DHT22;38063;53.210;6.504;2022-10-16T03:42:42;12.50;99.90
52058;DHT22;38063;53.210;6.504;2022-10-16T03:45:08;12.40;99.90
52058;DHT22;38063;53.210;6.504;2022-10-16T03:47:34;12.40;99.90
52058;DHT22;38063;53.210;6.504;2022-10-16T03:50:00;12.40;99.90
52058;DHT22;38063;53.210;6.504;2022-10-16T03:52:25;12.40;99.90
52058;DHT22;38063;53.210;6.504;2022-10-16T03:54:51;12.40;99.90
52058;DHT22;38063;53.210;6.504;2022-10-16T03:57:17;12.30;99.90
52058;DHT22;38063;53.210;6.504;2022-10-16T03:59:43;12.30;99.90
52058;DHT22;38063;53.210;6.504;2022-10-16T04:02:09;12.30;99.90
52058;DHT22;38063;53.210;6.504;2022-10-16T04:04:34;12.30;99.90
52058;DHT22;38063;53.210;6.504;2022-10-16T04:07:00;12.20;99.90
52058;DHT22;38063;53.210;6.504;2022-10-16T04:09:26;12.20;99.90
52058;DHT22;38063;53.210;6.504;2022-10-16T04:11:52;12.20;99.90
52058;DHT22;38063;53.210;6.504;2022-10-16T04:14:17;12.20;99.90
52058;DHT22;38063;53.210;6.504;2022-10-16T04:16:43;12.10;99.90
52058;DHT22;38063;53.210;6.504;2022-10-16T04:19:10;12.10;99.90
52058;DHT22;38063;53.210;6.504;2022-10-16T04:21:36;12.10;99.90
52058;DHT22;38063;53.210;6.504;2022-10-16T04:24:01;12.30;99.90
52058;DHT22;38063;53.210;6.504;2022-10-16T04:26:27;12.10;99.90
52058;DHT22;38063;53.210;6.504;2022-10-16T04:28:53;12.10;99.90
52058;DHT22;38063;53.210;6.504;2022-10-16T04:31:19;12.00;99.90
52058;DHT22;38063;53.210;6.504;2022-10-16T04:33:45;12.10;99.90
52058;DHT22;38063;53.210;6.504;2022-10-16T04:36:11;12.00;99.90
52058;DHT22;38063;53.210;6.504;2022-10-16T04:38:37;12.00;99.90
52058;DHT22;38063;53.210;6.504;2022-10-16T04:41:05;12.00;99.90
52058;DHT22;38063;53.210;6.504;2022-10-16T04:43:30;12.00;99.90
52058;DHT22;38063;53.210;6.504;2022-10-16T04:45:56;12.00;99.90
52058;DHT22;38063;53.210;6.504;2022-10-16T04:48:22;12.00;99.90
52058;DHT22;38063;53.210;6.504;2022-10-16T04:50:47;12.10;99.90
52058;DHT22;38063;53.210;6.504;2022-10-16T04:53:13;12.00;99.90
52058;DHT22;38063;53.210;6.504;2022-10-16T04:55:39;12.10;99.90
52058;DHT22;38063;53.210;6.504;2022-10-16T04:58:06;12.00;99.90
52058;DHT22;38063;53.210;6.504;2022-10-16T05:00:32;12.10;99.90
52058;DHT22;38063;53.210;6.504;2022-10-16T05:02:58;12.10;99.90
52058;DHT22;38063;53.210;6.504;2022-10-16T05:05:26;12.10;99.90
52058;DHT22;38063;53.210;6.504;2022-10-16T05:07:53;12.20;99.90
52058;DHT22;38063;53.210;6.504;2022-10-16T05:10:19;12.20;99.90
52058;DHT22;38063;53.210;6.504;2022-10-16T05:12:45;12.20;99.90
52058;DHT22;38063;53.210;6.504;2022-10-16T05:15:11;12.30;99.90
52058;DHT22;38063;53.210;6.504;2022-10-16T05:17:37;12.20;99.90
52058;DHT22;38063;53.210;6.504;2022-10-16T05:20:03;12.20;99.90
52058;DHT22;38063;53.210;6.504;2022-10-16T05:22:28;12.20;99.90
52058;DHT22;38063;53.210;6.504;2022-10-16T05:24:54;12.20;99.90
52058;DHT22;38063;53.210;6.504;2022-10-16T05:27:20;12.30;99.90
52058;DHT22;38063;53.210;6.504;2022-10-16T05:29:47;12.20;99.90
52058;DHT22;38063;53.210;6.504;2022-10-16T05:32:15;12.30;99.90
52058;DHT22;38063;53.210;6.504;2022-10-16T05:34:41;12.20;99.90
52058;DHT22;38063;53.210;6.504;2022-10-16T05:37:06;12.20;99.90
52058;DHT22;38063;53.210;6.504;2022-10-16T05:39:32;12.20;99.90
52058;DHT22;38063;53.210;6.504;2022-10-16T05:41:58;12.10;99.90
52058;DHT22;38063;53.210;6.504;2022-10-16T05:44:23;12.20;99.90
52058;DHT22;38063;53.210;6.504;2022-10-16T05:46:49;12.20;99.90
52058;DHT22;38063;53.210;6.504;2022-10-16T05:49:15;12.20;99.90
52058;DHT22;38063;53.210;6.504;2022-10-16T05:51:40;12.20;99.90
52058;DHT22;38063;53.210;6.504;2022-10-16T05:54:07;12.20;99.90
52058;DHT22;38063;53.210;6.504;2022-10-16T05:56:32;12.20;99.90
52058;DHT22;38063;53.210;6.504;2022-10-16T05:58:58;12.20;99.90
52058;DHT22;38063;53.210;6.504;2022-10-16T06:01:24;12.20;99.90
52058;DHT22;38063;53.210;6.504;2022-10-16T06:03:53;12.20;99.90
52058;DHT22;38063;53.210;6.504;2022-10-16T06:06:21;12.20;99.90
52058;DHT22;38063;53.210;6.504;2022-10-16T06:08:48;12.20;99.90
52058;DHT22;38063;53.210;6.504;2022-10-16T06:11:34;12.20;99.90
52058;DHT22;38063;53.210;6.504;2022-10-16T06:14:01;12.10;99.90
52058;DHT22;38063;53.210;6.504;2022-10-16T06:16:32;12.20;99.90
52058;DHT22;38063;53.210;6.504;2022-10-16T06:18:57;12.20;99.90
52058;DHT22;38063;53.210;6.504;2022-10-16T06:21:25;12.20;99.90
52058;DHT22;38063;53.210;6.504;2022-10-16T06:23:52;12.20;99.90
52058;DHT22;38063;53.210;6.504;2022-10-16T06:26:20;12.20;99.90
52058;DHT22;38063;53.210;6.504;2022-10-16T06:28:46;12.20;99.90
52058;DHT22;38063;53.210;6.504;2022-10-16T06:31:12;12.30;99.90
52058;DHT22;38063;53.210;6.504;2022-10-16T06:33:39;12.30;99.90
52058;DHT22;38063;53.210;6.504;2022-10-16T06:36:08;12.30;99.90
52058;DHT22;38063;53.210;6.504;2022-10-16T06:38:35;12.30;99.90
52058;DHT22;38063;53.210;6.504;2022-10-16T06:41:01;12.30;99.90
52058;DHT22;38063;53.210;6.504;2022-10-16T06:43:29;12.50;99.90
52058;DHT22;38063;53.210;6.504;2022-10-16T06:45:58;12.40;99.90
52058;DHT22;38063;53.210;6.504;2022-10-16T06:48:25;12.40;99.90
52058;DHT22;38063;53.210;6.504;2022-10-16T06:50:57;12.40;99.90
52058;DHT22;38063;53.210;6.504;2022-10-16T06:53:24;12.40;99.90
52058;DHT22;38063;53.210;6.504;2022-10-16T06:55:49;12.40;99.90
52058;DHT22;38063;53.210;6.504;2022-10-16T06:58:15;12.50;99.90
52058;DHT22;38063;53.210;6.504;2022-10-16T07:00:41;12.50;99.90
52058;DHT22;38063;53.210;6.504;2022-10-16T07:03:06;12.60;99.90
52058;DHT22;38063;53.210;6.504;2022-10-16T07:05:36;12.60;99.90
52058;DHT22;38063;53.210;6.504;2022-10-16T07:08:02;12.60;99.90
52058;DHT22;38063;53.210;6.504;2022-10-16T07:10:30;12.70;99.90
52058;DHT22;38063;53.210;6.504;2022-10-16T07:12:56;12.80;99.90
52058;DHT22;38063;53.210;6.504;2022-10-16T07:15:22;12.70;99.90
52058;DHT22;38063;53.210;6.504;2022-10-16T07:17:48;12.70;99.90
52058;DHT22;38063;53.210;6.504;2022-10-16T07:20:13;12.80;99.90
52058;DHT22;38063;53.210;6.504;2022-10-16T07:22:39;12.80;99.90
52058;DHT22;38063;53.210;6.504;2022-10-16T07:25:05;12.80;99.90
52058;DHT22;38063;53.210;6.504;2022-10-16T07:27:31;12.90;99.90
52058;DHT22;38063;53.210;6.504;2022-10-16T07:29:56;13.10;99.90
52058;DHT22;38063;53.210;6.504;2022-10-16T07:32:22;12.90;99.90
52058;DHT22;38063;53.210;6.504;2022-10-16T07:34:49;13.00;99.90
52058;DHT22;38063;53.210;6.504;2022-10-16T07:37:14;12.90;99.90
52058;DHT22;38063;53.210;6.504;2022-10-16T07:39:40;13.10;99.90
52058;DHT22;38063;53.210;6.504;2022-10-16T07:42:05;12.90;99.90
52058;DHT22;38063;53.210;6.504;2022-10-16T07:44:31;12.90;99.90
52058;DHT22;38063;53.210;6.504;2022-10-16T07:46:57;12.90;99.90
52058;DHT22;38063;53.210;6.504;2022-10-16T07:49:23;13.10;99.90
52058;DHT22;38063;53.210;6.504;2022-10-16T07:51:48;13.00;99.90
52058;DHT22;38063;53.210;6.504;2022-10-16T07:54:14;12.90;99.90
52058;DHT22;38063;53.210;6.504;2022-10-16T07:56:39;12.90;99.90
52058;DHT22;38063;53.210;6.504;2022-10-16T07:59:05;12.90;99.90
52058;DHT22;38063;53.210;6.504;2022-10-16T08:01:31;12.90;99.90
52058;DHT22;38063;53.210;6.504;2022-10-16T08:03:56;12.90;99.90
52058;DHT22;38063;53.210;6.504;2022-10-16T08:06:22;12.90;99.90
52058;DHT22;38063;53.210;6.504;2022-10-16T08:08:48;12.80;99.90
52058;DHT22;38063;53.210;6.504;2022-10-16T08:11:14;12.80;99.90
52058;DHT22;38063;53.210;6.504;2022-10-16T08:13:41;12.80;99.90
52058;DHT22;38063;53.210;6.504;2022-10-16T08:16:07;12.80;99.90
52058;DHT22;38063;53.210;6.504;2022-10-16T08:18:38;12.80;99.90
52058;DHT22;38063;53.210;6.504;2022-10-16T08:21:05;12.80;99.90
52058;DHT22;38063;53.210;6.504;2022-10-16T08:23:32;12.90;99.90
52058;DHT22;38063;53.210;6.504;2022-10-16T08:26:04;12.90;99.90
52058;DHT22;38063;53.210;6.504;2022-10-16T08:28:29;13.10;99.90
52058;DHT22;38063;53.210;6.504;2022-10-16T08:30:55;13.10;99.90
52058;DHT22;38063;53.210;6.504;2022-10-16T08:33:22;13.20;99.90
52058;DHT22;38063;53.210;6.504;2022-10-16T08:35:52;13.40;99.90
52058;DHT22;38063;53.210;6.504;2022-10-16T08:38:19;13.50;99.90
52058;DHT22;38063;53.210;6.504;2022-10-16T08:40:45;13.60;99.90
52058;DHT22;38063;53.210;6.504;2022-10-16T08:51:09;13.80;99.90
52058;DHT22;38063;53.210;6.504;2022-10-16T08:53:44;13.90;99.90
52058;DHT22;38063;53.210;6.504;2022-10-16T08:56:10;13.90;99.90
52058;DHT22;38063;53.210;6.504;2022-10-16T08:58:35;14.10;99.90
52058;DHT22;38063;53.210;6.504;2022-10-16T09:01:03;14.30;99.90
52058;DHT22;38063;53.210;6.504;2022-10-16T09:04:12;14.20;99.90
52058;DHT22;38063;53.210;6.504;2022-10-16T09:06:50;14.30;99.90
52058;DHT22;38063;53.210;6.504;2022-10-16T09:12:55;14.40;99.90
52058;DHT22;38063;53.210;6.504;2022-10-16T09:21:09;14.50;99.90
52058;DHT22;38063;53.210;6.504;2022-10-16T09:23:38;14.60;99.90
52058;DHT22;38063;53.210;6.504;2022-10-16T09:26:05;14.70;99.90
52058;DHT22;38063;53.210;6.504;2022-10-16T09:28:35;14.70;99.90
52058;DHT22;38063;53.210;6.504;2022-10-16T09:31:00;14.80;99.90
52058;DHT22;38063;53.210;6.504;2022-10-16T09:33:36;14.70;99.90
52058;DHT22;38063;53.210;6.504;2022-10-16T09:36:05;14.80;99.90
52058;DHT22;38063;53.210;6.504;2022-10-16T09:38:35;14.80;99.90
52058;DHT22;38063;53.210;6.504;2022-10-16T09:41:17;14.90;99.90
52058;DHT22;38063;53.210;6.504;2022-10-16T09:43:55;14.90;99.90
52058;DHT22;38063;53.210;6.504;2022-10-16T09:46:27;15.00;99.90
52058;DHT22;38063;53.210;6.504;2022-10-16T09:48:59;15.00;99.90
52058;DHT22;38063;53.210;6.504;2022-10-16T09:51:31;15.00;99.90
52058;DHT22;38063;53.210;6.504;2022-10-16T09:54:02;15.00;99.90
52058;DHT22;38063;53.210;6.504;2022-10-16T09:56:31;15.10;99.90
52058;DHT22;38063;53.210;6.504;2022-10-16T09:59:25;15.10;99.90
52058;DHT22;38063;53.210;6.504;2022-10-16T10:01:53;15.20;99.90
52058;DHT22;38063;53.210;6.504;2022-10-16T10:04:24;15.20;99.90
52058;DHT22;38063;53.210;6.504;2022-10-16T10:06:56;15.20;99.90
52058;DHT22;38063;53.210;6.504;2022-10-16T10:09:38;15.20;99.90
52058;DHT22;38063;53.210;6.504;2022-10-16T10:12:06;15.20;99.90
52058;DHT22;38063;53.210;6.504;2022-10-16T10:14:46;15.30;99.90
52058;DHT22;38063;53.210;6.504;2022-10-16T10:17:15;15.20;99.90
52058;DHT22;38063;53.210;6.504;2022-10-16T10:19:57;15.20;99.90
52058;DHT22;38063;53.210;6.504;2022-10-16T10:22:43;15.20;99.90
52058;DHT22;38063;53.210;6.504;2022-10-16T10:27:43;15.40;99.90
52058;DHT22;38063;53.210;6.504;2022-10-16T10:30:38;15.30;99.90
52058;DHT22;38063;53.210;6.504;2022-10-16T10:36:06;15.50;99.90
52058;DHT22;38063;53.210;6.504;2022-10-16T10:46:36;15.70;99.90
52058;DHT22;38063;53.210;6.504;2022-10-16T11:01:06;16.20;99.90
52058;DHT22;38063;53.210;6.504;2022-10-16T11:09:15;16.10;99.90
52058;DHT22;38063;53.210;6.504;2022-10-16T11:11:56;16.10;99.90
52058;DHT22;38063;53.210;6.504;2022-10-16T11:14:35;16.20;99.90
52058;DHT22;38063;53.210;6.504;2022-10-16T11:17:13;16.30;99.90
52058;DHT22;38063;53.210;6.504;2022-10-16T11:20:13;16.40;99.90
52058;DHT22;38063;53.210;6.504;2022-10-16T11:22:48;16.50;99.90
52058;DHT22;38063;53.210;6.504;2022-10-16T11:25:28;16.60;99.90
52058;DHT22;38063;53.210;6.504;2022-10-16T11:28:11;16.80;99.90
52058;DHT22;38063;53.210;6.504;2022-10-16T11:30:55;16.90;99.90
52058;DHT22;38063;53.210;6.504;2022-10-16T11:36:21;17.10;99.90
52058;DHT22;38063;53.210;6.504;2022-10-16T11:39:03;17.20;99.90
52058;DHT22;38063;53.210;6.504;2022-10-16T11:41:45;17.30;99.90
52058;DHT22;38063;53.210;6.504;2022-10-16T11:44:57;17.40;99.90
52058;DHT22;38063;53.210;6.504;2022-10-16T11:47:23;17.50;99.90
52058;DHT22;38063;53.210;6.504;2022-10-16T11:50:38;17.70;99.90
52058;DHT22;38063;53.210;6.504;2022-10-16T11:52:52;17.80;99.90
52058;DHT22;38063;53.210;6.504;2022-10-16T11:55:26;17.90;99.90
52058;DHT22;38063;53.210;6.504;2022-10-16T11:58:06;17.90;99.90
52058;DHT22;38063;53.210;6.504;2022-10-16T12:03:22;17.70;99.90
52058;DHT22;38063;53.210;6.504;2022-10-16T12:08:23;17.70;99.90
52058;DHT22;38063;53.210;6.504;2022-10-16T12:10:49;17.60;99.90
52058;DHT22;38063;53.210;6.504;2022-10-16T12:13:33;17.50;99.90
52058;DHT22;38063;53.210;6.504;2022-10-16T12:18:46;17.40;99.90
52058;DHT22;38063;53.210;6.504;2022-10-16T12:21:13;17.50;99.90
52058;DHT22;38063;53.210;6.504;2022-10-16T12:23:55;17.70;99.90
52058;DHT22;38063;53.210;6.504;2022-10-16T12:28:51;17.90;99.90
52058;DHT22;38063;53.210;6.504;2022-10-16T12:31:17;17.70;99.90
52058;DHT22;38063;53.210;6.504;2022-10-16T12:34:01;17.70;99.90
52058;DHT22;38063;53.210;6.504;2022-10-16T12:36:32;17.70;99.90
52058;DHT22;38063;53.210;6.504;2022-10-16T12:38:59;17.90;99.90
52058;DHT22;38063;53.210;6.504;2022-10-16T12:41:28;17.70;99.90
52058;DHT22;38063;53.210;6.504;2022-10-16T12:43:55;17.60;99.90
52058;DHT22;38063;53.210;6.504;2022-10-16T12:46:32;17.50;99.90
52058;DHT22;38063;53.210;6.504;2022-10-16T12:51:39;17.40;99.90
52058;DHT22;38063;53.210;6.504;2022-10-16T12:54:58;17.30;99.90
52058;DHT22;38063;53.210;6.504;2022-10-16T13:00:25;17.30;99.90
52058;DHT22;38063;53.210;6.504;2022-10-16T13:06:07;17.20;99.90
52058;DHT22;38063;53.210;6.504;2022-10-16T13:11:57;17.20;99.90
52058;DHT22;38063;53.210;6.504;2022-10-16T13:17:20;17.00;99.90
52058;DHT22;38063;53.210;6.504;2022-10-16T13:20:11;16.90;99.90
52058;DHT22;38063;53.210;6.504;2022-10-16T13:26:01;16.90;99.90
52058;DHT22;38063;53.210;6.504;2022-10-16T13:28:31;17.00;99.90
52058;DHT22;38063;53.210;6.504;2022-10-16T13:30:59;17.10;99.90
52058;DHT22;38063;53.210;6.504;2022-10-16T13:33:50;17.20;99.90
52058;DHT22;38063;53.210;6.504;2022-10-16T13:41:26;17.10;99.90
52058;DHT22;38063;53.210;6.504;2022-10-16T13:43:54;17.00;99.90
52058;DHT22;38063;53.210;6.504;2022-10-16T13:46:23;16.90;99.90
52058;DHT22;38063;53.210;6.504;2022-10-16T13:49:13;17.10;99.90
52058;DHT22;38063;53.210;6.504;2022-10-16T13:51:38;17.40;99.90
52058;DHT22;38063;53.210;6.504;2022-10-16T13:54:04;17.60;99.90
52058;DHT22;38063;53.210;6.504;2022-10-16T13:56:32;17.80;99.90
52058;DHT22;38063;53.210;6.504;2022-10-16T13:59:05;17.80;99.90
52058;DHT22;38063;53.210;6.504;2022-10-16T14:04:07;17.90;99.90
52058;DHT22;38063;53.210;6.504;2022-10-16T14:06:35;17.90;99.90
52058;DHT22;38063;53.210;6.504;2022-10-16T14:09:25;17.90;99.90
52058;DHT22;38063;53.210;6.504;2022-10-16T14:11:58;17.80;99.90
52058;DHT22;38063;53.210;6.504;2022-10-16T14:14:24;17.80;99.90
52058;DHT22;38063;53.210;6.504;2022-10-16T14:16:52;17.80;99.90
52058;DHT22;38063;53.210;6.504;2022-10-16T14:19:26;17.80;99.90
52058;DHT22;38063;53.210;6.504;2022-10-16T14:21:53;17.80;99.90
52058;DHT22;38063;53.210;6.504;2022-10-16T14:24:27;17.80;99.90
52058;DHT22;38063;53.210;6.504;2022-10-16T14:26:53;17.80;99.90
52058;DHT22;38063;53.210;6.504;2022-10-16T14:29:21;17.80;99.90
52058;DHT22;38063;53.210;6.504;2022-10-16T14:31:59;17.70;99.90
52058;DHT22;38063;53.210;6.504;2022-10-16T14:34:33;17.60;99.90
52058;DHT22;38063;53.210;6.504;2022-10-16T14:39:33;17.30;99.90
52058;DHT22;38063;53.210;6.504;2022-10-16T14:41:59;17.20;99.90
52058;DHT22;38063;53.210;6.504;2022-10-16T14:44:34;17.20;99.90
52058;DHT22;38063;53.210;6.504;2022-10-16T14:47:19;17.10;99.90
52058;DHT22;38063;53.210;6.504;2022-10-16T14:49:51;17.00;99.90
52058;DHT22;38063;53.210;6.504;2022-10-16T14:52:17;16.80;99.90
52058;DHT22;38063;53.210;6.504;2022-10-16T14:54:43;16.70;99.90
52058;DHT22;38063;53.210;6.504;2022-10-16T14:57:23;16.50;99.90
52058;DHT22;38063;53.210;6.504;2022-10-16T14:59:49;16.50;99.90
52058;DHT22;38063;53.210;6.504;2022-10-16T15:02:34;16.40;99.90
52058;DHT22;38063;53.210;6.504;2022-10-16T15:05:12;16.30;99.90
52058;DHT22;38063;53.210;6.504;2022-10-16T15:07:38;16.20;99.90
52058;DHT22;38063;53.210;6.504;2022-10-16T15:10:04;16.10;99.90
52058;DHT22;38063;53.210;6.504;2022-10-16T15:12:30;16.10;99.90
52058;DHT22;38063;53.210;6.504;2022-10-16T15:14:56;16.00;99.90
52058;DHT22;38063;53.210;6.504;2022-10-16T15:17:21;16.00;99.90
52058;DHT22;38063;53.210;6.504;2022-10-16T15:19:47;15.90;99.90
52058;DHT22;38063;53.210;6.504;2022-10-16T15:22:12;15.90;99.90
52058;DHT22;38063;53.210;6.504;2022-10-16T15:24:38;15.80;99.90
52058;DHT22;38063;53.210;6.504;2022-10-16T15:27:04;15.80;99.90
52058;DHT22;38063;53.210;6.504;2022-10-16T15:29:29;15.80;99.90
52058;DHT22;38063;53.210;6.504;2022-10-16T15:31:55;15.70;99.90
52058;DHT22;38063;53.210;6.504;2022-10-16T15:34:21;15.70;99.90
52058;DHT22;38063;53.210;6.504;2022-10-16T15:36:46;15.60;99.90
52058;DHT22;38063;53.210;6.504;2022-10-16T15:39:17;15.60;99.90
52058;DHT22;38063;53.210;6.504;2022-10-16T15:41:44;15.50;99.90
52058;DHT22;38063;53.210;6.504;2022-10-16T15:44:10;15.50;99.90
52058;DHT22;38063;53.210;6.504;2022-10-16T15:46:36;15.40;99.90
52058;DHT22;38063;53.210;6.504;2022-10-16T15:49:03;15.40;99.90
52058;DHT22;38063;53.210;6.504;2022-10-16T15:51:29;15.30;99.90
52058;DHT22;38063;53.210;6.504;2022-10-16T15:53:57;15.30;99.90
52058;DHT22;38063;53.210;6.504;2022-10-16T15:56:24;15.20;99.90
52058;DHT22;38063;53.210;6.504;2022-10-16T15:58:51;15.10;99.90
52058;DHT22;38063;53.210;6.504;2022-10-16T16:01:17;15.10;99.90
52058;DHT22;38063;53.210;6.504;2022-10-16T16:03:43;15.00;99.90
52058;DHT22;38063;53.210;6.504;2022-10-16T16:06:11;15.00;99.90
52058;DHT22;38063;53.210;6.504;2022-10-16T16:08:38;14.80;99.90
52058;DHT22;38063;53.210;6.504;2022-10-16T16:11:09;14.80;99.90
52058;DHT22;38063;53.210;6.504;2022-10-16T16:13:35;14.70;99.90
52058;DHT22;38063;53.210;6.504;2022-10-16T16:16:09;14.70;99.90
52058;DHT22;38063;53.210;6.504;2022-10-16T16:18:35;14.60;99.90
52058;DHT22;38063;53.210;6.504;2022-10-16T16:21:01;14.60;99.90
52058;DHT22;38063;53.210;6.504;2022-10-16T16:23:27;14.50;99.90
52058;DHT22;38063;53.210;6.504;2022-10-16T16:26:07;14.40;99.90
52058;DHT22;38063;53.210;6.504;2022-10-16T16:28:35;14.30;99.90
52058;DHT22;38063;53.210;6.504;2022-10-16T16:31:01;14.30;99.90
52058;DHT22;38063;53.210;6.504;2022-10-16T16:33:27;14.20;99.90
52058;DHT22;38063;53.210;6.504;2022-10-16T16:35:58;14.10;99.90
52058;DHT22;38063;53.210;6.504;2022-10-16T16:38:24;14.10;99.90
52058;DHT22;38063;53.210;6.504;2022-10-16T16:40:50;14.00;99.90
52058;DHT22;38063;53.210;6.504;2022-10-16T16:43:17;14.00;99.90
52058;DHT22;38063;53.210;6.504;2022-10-16T16:45:43;13.90;99.90
52058;DHT22;38063;53.210;6.504;2022-10-16T16:48:08;13.80;99.90
52058;DHT22;38063;53.210;6.504;2022-10-16T16:50:37;13.80;99.90
52058;DHT22;38063;53.210;6.504;2022-10-16T16:53:03;13.70;99.90
52058;DHT22;38063;53.210;6.504;2022-10-16T16:55:29;13.60;99.90
52058;DHT22;38063;53.210;6.504;2022-10-16T16:57:54;13.60;99.90
52058;DHT22;38063;53.210;6.504;2022-10-16T17:00:22;13.50;99.90
52058;DHT22;38063;53.210;6.504;2022-10-16T17:02:49;13.50;99.90
52058;DHT22;38063;53.210;6.504;2022-10-16T17:05:14;13.50;99.90
52058;DHT22;38063;53.210;6.504;2022-10-16T17:07:40;13.40;99.90
52058;DHT22;38063;53.210;6.504;2022-10-16T17:10:06;13.30;99.90
52058;DHT22;38063;53.210;6.504;2022-10-16T17:12:32;13.20;99.90
52058;DHT22;38063;53.210;6.504;2022-10-16T17:14:58;13.20;99.90
52058;DHT22;38063;53.210;6.504;2022-10-16T17:17:24;13.10;99.90
52058;DHT22;38063;53.210;6.504;2022-10-16T17:19:50;13.00;99.90
52058;DHT22;38063;53.210;6.504;2022-10-16T17:22:16;13.00;99.90
52058;DHT22;38063;53.210;6.504;2022-10-16T17:24:42;12.90;99.90